• Join FlightAware (Why Join?)
  • Login
  • US Flag 
12:56AM EDT


 

Airport Tracker/Info


-or-


 

Live Flight TrackerFlight Track Log ✈ N44566 ✈ 24-Aug-2013 ✈ KHFD - KFRG

Flight Track Log - Related Links

Times and Time Zones

All times are in EDT time to prevent confusion due to time zone crossing. See the N44566 flight status page for this flight to view local times or setup timezone preferences in your user account.

Time Position Orientation Groundspeed Altitude Reporting Facility
EDT Latitude Longitude Course Direction KTS MPH feet Rate Location/Type
09:24PM 41.7017 -72.6697 210° Southwest 67 77 1,200  Level Boston Center
09:25PM 41.6847 -72.6897 221° Southwest 78 90 1,700 420 Climbing Boston Center
09:26PM 41.6758 -72.7008 223° Southwest 77 89 1,900 420 Climbing Boston Center
09:27PM 41.6669 -72.7261 245° Southwest 77 89 2,400 480 Climbing Boston Center
09:28PM 41.6578 -72.7533 246° West 78 90 2,900 360 Climbing Boston Center
09:29PM 41.6372 -72.7661 205° Southwest 81 93 3,200 300 Climbing Boston Center
09:30PM 41.5480 -72.7946 210° Southwest  Level Estimated
09:30PM 41.6150 -72.7497 151° Southeast 88 101 3,600  Level Boston Center
09:31PM 41.5997 -72.7225 127° Southeast 90 104 4,000 360 Climbing Boston Center
09:32PM 41.5742 -72.7203 176° South 92 106 4,400 240 Climbing Boston Center
09:33PM 41.5467 -72.7314 197° South 98 113 4,600  Climbing Boston Center
09:34PM 41.5225 -72.7517 212° Southwest 102 117 4,500 -60 Descending Boston Center
09:35PM 41.4994 -72.7644 203° Southwest 100 115 4,500  Level Boston Center
09:36PM 41.4711 -72.7514 161° South 99 114 4,600  Climbing Boston Center
09:37PM 41.4422 -72.7514 180° South 103 119 4,600  Level Boston Center
09:38PM 41.4108 -72.7475 175° South 110 127 4,600 -60 Level Boston Center
09:39PM 41.3817 -72.7372 165° South 105 121 4,500 -60 Descending Boston Center
09:40PM 41.3603 -72.7106 137° Southeast 104 120 4,500  Level Boston Center
09:41PM 41.3386 -72.6847 138° Southeast 109 125 4,600  Climbing Boston Center
09:42PM 41.3089 -72.6958 196° South 111 128 4,500 -60 Descending Boston Center
09:43PM 41.2794 -72.6961 180° South 109 125 4,500  Level Boston Center
09:44PM 41.2703 -72.7292 250° West 100 115 4,500  Level Boston Center
09:45PM 41.2656 -72.7625 259° West 93 107 4,500  Level Boston Center
09:46PM 41.2661 -72.7983 271° West 96 110 4,500  Level Boston Center
09:47PM 41.2653 -72.8331 268° West 95 109 4,500  Level Boston Center
09:48PM 41.2547 -72.8653 246° West 96 110 4,600  Climbing Boston Center
09:49PM 41.2431 -72.8986 245° Southwest 98 113 4,600 -60 Level Boston Center
09:50PM 41.2342 -72.9339 251° West 101 116 4,500 -60 Descending Boston Center
09:51PM 41.2269 -72.9681 254° West 98 113 4,500  Level Boston Center
09:52PM 41.2217 -73.0028 259° West 97 112 4,500  Level Boston Center
09:53PM 41.2111 -73.0344 246° West 96 110 4,500  Level Boston Center
09:54PM 41.1875 -73.0692 228° Southwest 107 123 4,500  Level Boston Center
09:55PM 41.1667 -73.1167 240° Southwest 102 117 4,500 -180 Level New York TRACON
09:57PM 41.1228 -73.1461 207° Southwest 109 125 4,000 -420 Descending Boston Center
09:58PM 41.0953 -73.1703 214° Southwest 115 132 3,400 -540 Descending Boston Center
09:59PM 41.0697 -73.1925 213° Southwest 114 131 3,000 -360 Descending Boston Center
10:00PM 41.0458 -73.2156 216° Southwest 110 127 2,700 -180 Descending Boston Center
10:01PM 41.0231 -73.2356 214° Southwest 105 121 2,700  Level Boston Center
10:02PM 41.0008 -73.2558 215° Southwest 101 116 2,700  Level Boston Center
10:03PM 40.9786 -73.2744 212° Southwest 98 113 2,700  Level Boston Center
10:04PM 40.9578 -73.2967 219° Southwest 97 112 2,700  Level Boston Center
10:05PM 40.9361 -73.3164 215° Southwest 96 110 2,700  Level Boston Center
10:06PM 40.9147 -73.3358 214° Southwest 94 108 2,700  Level Boston Center
10:07PM 40.8903 -73.3631 220° Southwest 95 109 2,700 -120 Level Boston Center
10:08PM 40.8714 -73.3878 225° Southwest 96 110 2,500 -360 Descending Boston Center
10:09PM 40.8519 -73.4169 229° Southwest 100 115 2,000 -540 Descending Boston Center
10:10PM 40.8256 -73.4258 194° South 107 123 1,500 -480 Descending Boston Center
10:11PM 40.7967 -73.4169 167° South 109 125 1,100 -300 Descending Boston Center
10:12PM 40.7703 -73.4172 180° South 103 119 900 -240 Descending Boston Center
10:14PM 40.7423 -73.4082 166° South  Level FlightAware Approximate
10:21PM 40.7288 -73.4134 201° Southwest  Level Estimated
10:22PM 40.7288 -73.4134 201° Southwest  Level Estimated
10:23PM 40.7288 -73.4134 201° Southwest  Level Estimated
10:24PM 40.7288 -73.4134 201° Southwest  Level Estimated